Time;durP1;ratioP1;P1;durP2;ratioP2;P2;SDS_P1;SDS_P2;PMS_P1;PMS_P2;Temp;Humidity;BMP_temperature;BMP_pressure;BME280_temperature;BME280_humidity;BME280_pressure;Samples;Min_cycle;Max_cycle;Signal;HPM_P1;HPM_P2
2022/12/21 00:01:17;;;;;;;14.30;4.97;;;;;;;;;;6243649;23;20446;-65
2022/12/21 00:03:44;;;;;;;29.67;5.47;;;;;;;;;;6245043;23;20010;-65
2022/12/21 00:06:10;;;;;;;21.80;4.65;;;;;;;;;;6246432;23;20774;-65
2022/12/21 00:08:38;;;;;;;25.10;4.93;;;;;;;;;;6246325;23;20040;-65
2022/12/21 00:11:04;;;;;;;20.27;4.63;;;;;;;;;;6246111;23;19996;-65
2022/12/21 00:13:31;;;;;;;23.35;4.60;;;;;;;;;;6246376;23;20401;-65
2022/12/21 00:15:58;;;;;;;23.95;4.75;;;;;;;;;;6244398;23;20079;-65
2022/12/21 00:18:24;;;;;;;21.58;4.63;;;;;;;;;;6246278;23;20012;-65
2022/12/21 00:21:07;;;;;;;23.88;4.78;;;;;;;;;;6246164;23;20074;-65
2022/12/21 00:23:33;;;;;;;23.05;5.15;;;;;;;;;;6244750;23;20138;-65
2022/12/21 00:26:00;;;;;;;31.55;5.05;;;;;;;;;;6246021;23;20035;-65
2022/12/21 00:28:27;;;;;;;24.98;6.13;;;;;;;;;;6246314;23;20042;-65
2022/12/21 00:30:53;;;;;;;17.00;4.53;;;;;;;;;;6245513;23;20371;-65
2022/12/21 00:33:19;;;;;;;20.60;4.78;;;;;;;;;;6246272;23;20058;-65
2022/12/21 00:35:49;;;;;;;18.92;5.40;;;;;;;;;;6244444;23;20008;-65
2022/12/21 00:38:16;;;;;;;32.22;5.20;;;;;;;;;;6244392;23;20083;-65
2022/12/21 00:40:42;;;;;;;17.88;4.57;;;;;;;;;;6246138;23;20438;-65
2022/12/21 00:43:08;;;;;;;16.00;4.63;;;;;;;;;;6245746;23;20322;-65
2022/12/21 00:45:34;;;;;;;20.40;4.85;;;;;;;;;;6244009;23;20339;-65
2022/12/21 00:48:01;;;;;;;20.40;5.55;;;;;;;;;;6244026;23;20007;-65
2022/12/21 00:50:27;;;;;;;16.45;4.22;;;;;;;;;;6245936;23;20000;-65
2022/12/21 00:52:53;;;;;;;14.80;4.63;;;;;;;;;;6245844;23;20000;-65
2022/12/21 00:55:19;;;;;;;24.58;4.40;;;;;;;;;;6244421;23;20091;-65
2022/12/21 00:57:45;;;;;;;20.10;4.25;;;;;;;;;;6245500;23;20083;-65
2022/12/21 01:00:12;;;;;;;23.83;3.85;;;;;;;;;;6243964;23;20004;-65
2022/12/21 01:02:39;;;;;;;17.38;4.22;;;;;;;;;;6246159;22;20008;-65
2022/12/21 01:05:05;;;;;;;17.42;3.40;;;;;;;;;;6245504;23;20008;-65
2022/12/21 01:07:31;;;;;;;13.52;4.30;;;;;;;;;;6244276;23;20028;-65
2022/12/21 01:09:57;;;;;;;11.70;3.38;;;;;;;;;;6245598;23;20000;-65
2022/12/21 01:12:24;;;;;;;12.20;2.80;;;;;;;;;;6244015;23;20084;-65
2022/12/21 01:14:50;;;;;;;16.15;3.05;;;;;;;;;;6245311;23;20008;-65
2022/12/21 01:17:16;;;;;;;10.27;3.15;;;;;;;;;;6243960;23;20008;-65
2022/12/21 01:19:42;;;;;;;12.90;3.25;;;;;;;;;;6245810;23;20027;-65
2022/12/21 01:22:09;;;;;;;16.20;3.03;;;;;;;;;;6245471;22;20079;-65
2022/12/21 01:24:36;;;;;;;12.73;3.17;;;;;;;;;;6244112;23;20008;-65
2022/12/21 01:27:02;;;;;;;9.95;2.78;;;;;;;;;;6245047;23;20011;-65
2022/12/21 01:29:28;;;;;;;10.80;3.22;;;;;;;;;;6245889;23;20024;-65
2022/12/21 01:31:54;;;;;;;14.43;3.30;;;;;;;;;;6244005;23;20375;-65
2022/12/21 01:34:20;;;;;;;14.52;2.75;;;;;;;;;;6243725;23;20015;-65
2022/12/21 01:36:46;;;;;;;17.67;3.42;;;;;;;;;;6244218;23;20015;-65
2022/12/21 01:39:12;;;;;;;15.85;2.92;;;;;;;;;;6245426;23;20046;-65
2022/12/21 01:41:38;;;;;;;20.98;3.25;;;;;;;;;;6245135;23;20015;-65
2022/12/21 01:44:05;;;;;;;19.27;3.33;;;;;;;;;;6243613;23;20066;-65
2022/12/21 01:46:34;;;;;;;13.52;3.08;;;;;;;;;;6245619;23;20050;-65
2022/12/21 01:49:00;;;;;;;13.88;2.80;;;;;;;;;;6245393;23;20007;-65
2022/12/21 01:51:26;;;;;;;10.38;2.38;;;;;;;;;;6244008;23;20497;-65
2022/12/21 01:53:55;;;;;;;8.27;2.58;;;;;;;;;;6243702;23;20089;-65
2022/12/21 01:56:23;;;;;;;13.57;2.75;;;;;;;;;;6243346;23;20004;-65
2022/12/21 01:58:49;;;;;;;11.77;3.63;;;;;;;;;;6243892;23;20023;-65
2022/12/21 02:01:16;;;;;;;9.80;2.60;;;;;;;;;;6243621;23;20099;-65
2022/12/21 02:03:45;;;;;;;12.13;2.90;;;;;;;;;;6245425;23;20028;-65
2022/12/21 02:06:16;;;;;;;6.60;2.10;;;;;;;;;;6243476;23;19996;-65
2022/12/21 02:08:43;;;;;;;9.10;2.38;;;;;;;;;;6245383;23;20063;-64
2022/12/21 02:11:09;;;;;;;11.80;2.72;;;;;;;;;;6217807;23;20008;-64
2022/12/21 02:13:36;;;;;;;6.22;2.10;;;;;;;;;;6245019;23;20008;-64
2022/12/21 02:16:02;;;;;;;7.88;2.33;;;;;;;;;;6243481;23;20011;-63
2022/12/21 02:18:45;;;;;;;8.75;2.60;;;;;;;;;;6245191;23;20012;-64
2022/12/21 02:21:11;;;;;;;8.25;2.20;;;;;;;;;;6243337;23;20086;-63
2022/12/21 02:24:01;;;;;;;12.70;2.28;;;;;;;;;;6245091;23;20008;-63
2022/12/21 02:26:30;;;;;;;10.57;2.90;;;;;;;;;;6121969;23;20039;-63
2022/12/21 02:29:14;;;;;;;24.08;5.07;;;;;;;;;;6122933;23;20006;-63
2022/12/21 02:31:49;;;;;;;8.82;2.83;;;;;;;;;;6123024;23;20448;-63
2022/12/21 02:34:21;;;;;;;8.57;2.17;;;;;;;;;;6097869;23;20045;-64
2022/12/21 02:36:59;;;;;;;11.68;2.13;;;;;;;;;;6123057;23;20014;-63
2022/12/21 02:39:34;;;;;;;11.25;2.30;;;;;;;;;;6098019;23;20088;-63
2022/12/21 02:42:06;;;;;;;11.18;2.25;;;;;;;;;;6122885;23;20061;-63
2022/12/21 02:44:42;;;;;;;23.65;3.28;;;;;;;;;;6098145;23;20006;-63
2022/12/21 02:47:08;;;;;;;14.10;2.28;;;;;;;;;;6122594;23;20005;-63
2022/12/21 02:49:37;;;;;;;8.07;2.33;;;;;;;;;;6122859;23;20253;-63
2022/12/21 02:52:22;;;;;;;15.85;2.50;;;;;;;;;;6122947;23;20014;-63
2022/12/21 02:54:48;;;;;;;11.07;2.15;;;;;;;;;;6097950;23;20046;-63
2022/12/21 02:57:14;;;;;;;12.68;3.42;;;;;;;;;;6122331;23;20188;-63
2022/12/21 02:59:43;;;;;;;10.10;2.22;;;;;;;;;;6097932;23;20010;-63
2022/12/21 03:02:22;;;;;;;11.10;2.08;;;;;;;;;;6122629;23;20393;-63
2022/12/21 03:04:50;;;;;;;8.93;2.00;;;;;;;;;;6243154;23;20008;-63
2022/12/21 03:07:19;;;;;;;16.77;2.20;;;;;;;;;;6243099;23;20434;-63
2022/12/21 03:10:03;;;;;;;13.38;2.13;;;;;;;;;;6244248;22;20004;-64
2022/12/21 03:12:45;;;;;;;9.52;2.25;;;;;;;;;;6243029;23;20035;-63
2022/12/21 03:15:29;;;;;;;10.60;2.15;;;;;;;;;;6242984;23;20019;-63
2022/12/21 03:18:13;;;;;;;13.55;2.47;;;;;;;;;;6243202;23;20023;-63
2022/12/21 03:20:51;;;;;;;8.38;2.55;;;;;;;;;;6244781;23;20039;-64
2022/12/21 03:23:20;;;;;;;15.35;2.47;;;;;;;;;;6242316;23;20146;-64
2022/12/21 03:25:51;;;;;;;12.77;2.00;;;;;;;;;;6245050;23;20379;-63
2022/12/21 03:28:21;;;;;;;8.75;1.85;;;;;;;;;;6244310;23;20040;-63
2022/12/21 03:30:51;;;;;;;8.93;3.53;;;;;;;;;;6244812;23;20004;-63
2022/12/21 03:33:19;;;;;;;15.77;4.47;;;;;;;;;;6244135;23;20003;-64
2022/12/21 03:35:46;;;;;;;11.05;2.33;;;;;;;;;;6244651;23;20015;-63
2022/12/21 03:38:15;;;;;;;8.15;2.00;;;;;;;;;;6245403;23;20000;-63
2022/12/21 03:40:43;;;;;;;14.23;2.20;;;;;;;;;;6246765;23;20355;-63
2022/12/21 03:43:21;;;;;;;9.63;1.80;;;;;;;;;;6246327;23;20000;-63
2022/12/21 03:45:53;;;;;;;7.95;1.80;;;;;;;;;;6246466;23;20381;-63
2022/12/21 03:48:27;;;;;;;4.65;1.55;;;;;;;;;;6246374;23;20004;-63
2022/12/21 03:50:54;;;;;;;7.85;1.58;;;;;;;;;;6246727;22;20000;-63
2022/12/21 03:53:29;;;;;;;16.40;2.38;;;;;;;;;;6245851;23;20000;-64
2022/12/21 03:55:58;;;;;;;9.82;2.22;;;;;;;;;;6246924;23;20350;-63
2022/12/21 03:58:24;;;;;;;9.80;1.67;;;;;;;;;;6246068;23;20071;-63
2022/12/21 04:00:56;;;;;;;14.20;3.28;;;;;;;;;;6246653;23;20078;-63
2022/12/21 04:03:28;;;;;;;8.85;1.92;;;;;;;;;;6244603;23;20442;-63
2022/12/21 04:05:57;;;;;;;12.35;1.90;;;;;;;;;;6246494;23;20050;-63
2022/12/21 04:08:24;;;;;;;8.23;2.35;;;;;;;;;;6245637;23;20003;-64
2022/12/21 04:10:51;;;;;;;6.47;1.60;;;;;;;;;;6246339;23;20000;-63
2022/12/21 04:13:17;;;;;;;9.52;2.03;;;;;;;;;;6246056;23;20012;-64
2022/12/21 04:21:14;;;;;;;6.85;2.30;;;;;;;;;;6244285;23;20401;-63
2022/12/21 04:29:09;;;;;;;16.42;1.98;;;;;;;;;;6246252;23;20032;-63
2022/12/21 04:31:35;;;;;;;7.38;1.70;;;;;;;;;;6246130;23;20007;-64
2022/12/21 04:34:01;;;;;;;15.57;1.75;;;;;;;;;;6246276;23;20004;-63
2022/12/21 04:39:13;;;;;;;17.30;3.38;;;;;;;;;;6246117;23;20083;-63
2022/12/21 04:41:39;;;;;;;13.82;3.60;;;;;;;;;;6246141;23;20004;-63
2022/12/21 04:44:05;;;;;;;11.35;1.70;;;;;;;;;;6246183;23;20033;-63
2022/12/21 04:46:31;;;;;;;11.52;1.95;;;;;;;;;;6245827;23;20010;-63
2022/12/21 04:48:57;;;;;;;9.25;1.88;;;;;;;;;;6245552;23;20496;-63
2022/12/21 04:51:24;;;;;;;8.88;1.90;;;;;;;;;;6244942;23;20000;-64
2022/12/21 04:53:51;;;;;;;13.65;1.80;;;;;;;;;;6244313;23;20062;-63
2022/12/21 04:56:17;;;;;;;12.25;1.75;;;;;;;;;;6245847;23;20039;-63
2022/12/21 04:58:44;;;;;;;7.72;1.67;;;;;;;;;;6245932;23;20296;-63
2022/12/21 05:01:15;;;;;;;12.45;3.03;;;;;;;;;;6246076;22;20410;-63
2022/12/21 05:03:41;;;;;;;10.63;2.15;;;;;;;;;;6245302;23;20008;-64
2022/12/21 05:06:08;;;;;;;15.50;2.00;;;;;;;;;;6245613;23;20427;-63
2022/12/21 05:08:34;;;;;;;8.10;1.50;;;;;;;;;;6245936;23;20621;-63
2022/12/21 05:11:07;;;;;;;5.57;1.30;;;;;;;;;;6245622;23;19996;-63
2022/12/21 05:13:34;;;;;;;10.77;1.40;;;;;;;;;;6245122;23;20004;-63
2022/12/21 05:16:04;;;;;;;10.85;1.50;;;;;;;;;;6246022;22;20019;-63
2022/12/21 05:18:30;;;;;;;11.02;2.10;;;;;;;;;;6245472;23;20012;-64
2022/12/21 05:20:56;;;;;;;16.70;1.60;;;;;;;;;;6245164;23;20010;-63
2022/12/21 05:23:22;;;;;;;7.35;1.10;;;;;;;;;;6245668;23;20008;-64
2022/12/21 05:25:48;;;;;;;11.38;1.75;;;;;;;;;;6245533;23;20050;-63
2022/12/21 05:28:15;;;;;;;11.55;1.45;;;;;;;;;;6245657;23;20004;-63
2022/12/21 05:30:41;;;;;;;4.55;1.33;;;;;;;;;;6245704;23;19997;-64
2022/12/21 05:33:07;;;;;;;6.47;1.20;;;;;;;;;;6245695;23;20007;-64
2022/12/21 05:35:33;;;;;;;9.85;2.88;;;;;;;;;;6244984;23;19997;-64
2022/12/21 05:37:59;;;;;;;10.30;1.77;;;;;;;;;;6245765;23;20000;-64
2022/12/21 05:40:25;;;;;;;14.80;3.13;;;;;;;;;;6245328;23;19996;-64
2022/12/21 05:42:51;;;;;;;8.98;1.85;;;;;;;;;;6245508;22;20079;-63
2022/12/21 05:45:17;;;;;;;13.75;3.53;;;;;;;;;;6245414;23;20008;-63
2022/12/21 05:47:43;;;;;;;10.85;2.15;;;;;;;;;;6242989;23;20054;-64
2022/12/21 05:50:10;;;;;;;11.38;2.13;;;;;;;;;;6245814;23;20000;-64
2022/12/21 05:52:36;;;;;;;7.97;2.08;;;;;;;;;;6245566;22;20007;-64
2022/12/21 05:55:03;;;;;;;12.60;2.05;;;;;;;;;;6245972;23;20000;-64
2022/12/21 05:57:29;;;;;;;13.73;3.10;;;;;;;;;;6245698;23;20011;-64
2022/12/21 05:59:55;;;;;;;6.63;1.52;;;;;;;;;;6245493;23;20398;-64
2022/12/21 06:02:21;;;;;;;13.50;2.05;;;;;;;;;;6244432;23;20004;-64
2022/12/21 06:04:47;;;;;;;9.98;2.00;;;;;;;;;;6244610;23;20067;-64
2022/12/21 06:07:13;;;;;;;8.50;1.80;;;;;;;;;;6245345;23;20004;-63
2022/12/21 06:09:39;;;;;;;9.38;2.78;;;;;;;;;;6245774;23;20074;-64
2022/12/21 06:12:06;;;;;;;10.57;1.95;;;;;;;;;;6246009;23;20450;-64
2022/12/21 06:14:32;;;;;;;16.77;2.22;;;;;;;;;;6244480;23;20033;-64
2022/12/21 06:16:58;;;;;;;11.10;1.75;;;;;;;;;;6242385;23;20008;-64
2022/12/21 06:19:24;;;;;;;9.23;1.60;;;;;;;;;;6242024;23;20008;-64
2022/12/21 06:21:50;;;;;;;16.58;1.70;;;;;;;;;;6242635;23;20038;-64
2022/12/21 06:24:16;;;;;;;7.00;1.50;;;;;;;;;;6243890;23;20016;-64
2022/12/21 06:26:42;;;;;;;10.13;1.80;;;;;;;;;;6244291;23;20296;-64
2022/12/21 06:29:09;;;;;;;13.13;1.65;;;;;;;;;;6244330;23;20011;-64
2022/12/21 06:31:35;;;;;;;7.63;1.67;;;;;;;;;;6243977;23;20008;-64
2022/12/21 06:34:10;;;;;;;10.88;1.67;;;;;;;;;;5067241;28;20387;-62
2022/12/21 06:36:36;;;;;;;10.80;1.70;;;;;;;;;;5050461;28;20044;-62
2022/12/21 06:39:02;;;;;;;5.85;1.92;;;;;;;;;;5048575;28;20018;-62
2022/12/21 06:41:28;;;;;;;3.65;1.13;;;;;;;;;;5048636;28;20029;-62
2022/12/21 06:43:54;;;;;;;13.30;1.70;;;;;;;;;;5050522;28;20108;-62
2022/12/21 06:46:21;;;;;;;4.25;1.60;;;;;;;;;;5048407;28;20083;-62
2022/12/21 06:48:47;;;;;;;11.75;1.65;;;;;;;;;;5048557;28;20052;-62
2022/12/21 06:51:17;;;;;;;4.07;1.42;;;;;;;;;;5048589;28;20030;-62
2022/12/21 06:53:44;;;;;;;6.85;1.83;;;;;;;;;;5047731;28;20124;-62
2022/12/21 06:56:12;;;;;;;9.07;1.40;;;;;;;;;;5047968;28;20435;-62
2022/12/21 06:58:38;;;;;;;6.72;1.60;;;;;;;;;;5047843;28;20027;-62
2022/12/21 07:01:06;;;;;;;10.20;1.60;;;;;;;;;;5046157;28;20104;-62
2022/12/21 07:03:32;;;;;;;11.20;2.00;;;;;;;;;;5047790;28;20485;-62
2022/12/21 07:05:58;;;;;;;6.43;1.73;;;;;;;;;;5047946;28;20033;-62
2022/12/21 07:08:24;;;;;;;6.03;1.25;;;;;;;;;;5047863;28;20025;-62
2022/12/21 07:10:50;;;;;;;6.97;1.33;;;;;;;;;;5047554;28;20032;-62
2022/12/21 07:13:16;;;;;;;7.28;1.40;;;;;;;;;;5047205;28;20036;-62
2022/12/21 07:15:42;;;;;;;7.05;1.52;;;;;;;;;;5045999;28;20055;-62
2022/12/21 07:18:08;;;;;;;3.33;0.88;;;;;;;;;;5047261;28;20025;-62
2022/12/21 07:20:35;;;;;;;6.20;1.23;;;;;;;;;;5047934;28;20032;-62
2022/12/21 07:23:01;;;;;;;8.07;1.40;;;;;;;;;;5047512;28;20037;-62
2022/12/21 07:25:27;;;;;;;3.92;1.58;;;;;;;;;;5047555;28;20378;-62
2022/12/21 07:27:55;;;;;;;4.10;0.93;;;;;;;;;;5047405;28;20508;-62
2022/12/21 07:30:21;;;;;;;5.63;0.80;;;;;;;;;;5047021;28;20347;-62
2022/12/21 07:32:48;;;;;;;3.53;0.93;;;;;;;;;;5047171;28;20045;-62
2022/12/21 07:35:14;;;;;;;7.45;0.95;;;;;;;;;;5046313;28;20021;-62
2022/12/21 07:37:40;;;;;;;4.45;1.08;;;;;;;;;;5046863;28;20049;-62
2022/12/21 07:40:06;;;;;;;5.43;2.03;;;;;;;;;;5047274;28;20060;-62
2022/12/21 07:42:32;;;;;;;1.90;0.80;;;;;;;;;;5042087;28;20063;-62
2022/12/21 07:45:04;;;;;;;2.60;0.68;;;;;;;;;;5033647;28;20032;-62
2022/12/21 07:47:39;;;;;;;4.07;0.70;;;;;;;;;;5029575;28;20032;-62
2022/12/21 07:50:06;;;;;;;2.72;0.65;;;;;;;;;;5033159;28;20032;-62
2022/12/21 07:52:32;;;;;;;2.80;0.40;;;;;;;;;;5033400;28;20029;-62
2022/12/21 07:54:59;;;;;;;5.55;0.60;;;;;;;;;;5033129;28;20396;-62
2022/12/21 07:57:25;;;;;;;1.92;0.63;;;;;;;;;;5033570;28;20028;-62
2022/12/21 07:59:51;;;;;;;1.92;0.70;;;;;;;;;;5028648;28;20029;-62
2022/12/21 08:02:17;;;;;;;2.15;0.80;;;;;;;;;;5026782;28;20029;-62
2022/12/21 08:04:43;;;;;;;4.07;0.50;;;;;;;;;;5021122;28;20030;-63
2022/12/21 08:07:09;;;;;;;1.08;0.63;;;;;;;;;;5024274;28;20044;-62
2022/12/21 08:09:35;;;;;;;3.80;0.93;;;;;;;;;;5022488;28;20052;-62
2022/12/21 08:12:02;;;;;;;0.77;0.40;;;;;;;;;;5022946;28;20025;-62
2022/12/21 08:14:28;;;;;;;2.25;0.50;;;;;;;;;;5022828;28;20076;-62
2022/12/21 08:16:54;;;;;;;1.90;0.60;;;;;;;;;;5030510;28;20028;-62
2022/12/21 08:19:21;;;;;;;3.33;0.50;;;;;;;;;;5029319;28;20057;-62
2022/12/21 08:21:47;;;;;;;8.95;1.10;;;;;;;;;;5027129;28;20418;-62
2022/12/21 08:24:13;;;;;;;3.75;2.22;;;;;;;;;;5032590;28;20027;-63
2022/12/21 08:26:39;;;;;;;5.22;2.17;;;;;;;;;;5028540;28;20017;-62
2022/12/21 08:29:06;;;;;;;5.53;3.05;;;;;;;;;;5031549;28;20025;-62
2022/12/21 08:31:32;;;;;;;2.05;0.95;;;;;;;;;;5028284;28;20069;-62
2022/12/21 08:33:58;;;;;;;2.03;0.77;;;;;;;;;;5027182;28;20050;-62
2022/12/21 08:36:25;;;;;;;2.60;0.70;;;;;;;;;;5032291;28;20029;-62
2022/12/21 08:38:53;;;;;;;2.67;0.90;;;;;;;;;;5032781;28;20026;-62
2022/12/21 08:41:19;;;;;;;1.73;0.50;;;;;;;;;;5032955;28;20024;-62
2022/12/21 08:43:45;;;;;;;3.92;1.00;;;;;;;;;;5031891;28;20029;-62
2022/12/21 08:46:12;;;;;;;1.75;0.85;;;;;;;;;;5031338;28;20393;-62
2022/12/21 08:48:38;;;;;;;1.30;0.70;;;;;;;;;;5045570;28;20060;-63
2022/12/21 08:51:07;;;;;;;4.32;0.90;;;;;;;;;;5050261;28;20433;-63
2022/12/21 08:53:34;;;;;;;2.85;0.82;;;;;;;;;;5045685;28;20069;-62
2022/12/21 08:56:00;;;;;;;2.17;1.00;;;;;;;;;;5049274;28;20029;-62
2022/12/21 08:58:26;;;;;;;1.27;0.60;;;;;;;;;;5037048;28;20029;-62
2022/12/21 09:00:53;;;;;;;1.20;0.75;;;;;;;;;;5035878;28;20075;-62
2022/12/21 09:03:20;;;;;;;1.98;0.77;;;;;;;;;;5037300;28;20075;-62
2022/12/21 09:05:46;;;;;;;2.30;0.70;;;;;;;;;;5043038;28;20029;-62
2022/12/21 09:08:13;;;;;;;5.93;0.88;;;;;;;;;;5041274;28;20029;-62
2022/12/21 09:10:39;;;;;;;2.47;0.75;;;;;;;;;;5041351;28;20101;-62
2022/12/21 09:13:05;;;;;;;1.23;0.68;;;;;;;;;;5043795;28;20037;-62
2022/12/21 09:15:32;;;;;;;1.80;0.80;;;;;;;;;;5047001;28;20021;-62
2022/12/21 09:17:58;;;;;;;1.42;0.60;;;;;;;;;;5041594;28;20021;-62
2022/12/21 09:20:24;;;;;;;3.28;0.80;;;;;;;;;;5040767;28;20550;-62
2022/12/21 09:22:50;;;;;;;1.70;0.73;;;;;;;;;;5040163;28;20116;-62
2022/12/21 09:25:17;;;;;;;1.52;0.60;;;;;;;;;;5042126;28;20091;-62
2022/12/21 09:27:43;;;;;;;4.40;0.70;;;;;;;;;;5041695;28;20021;-62
2022/12/21 09:30:09;;;;;;;1.80;0.70;;;;;;;;;;5040493;28;20041;-62
2022/12/21 09:32:35;;;;;;;2.92;1.10;;;;;;;;;;5042480;28;20072;-62
2022/12/21 09:35:01;;;;;;;4.53;1.10;;;;;;;;;;5039655;28;20107;-62
2022/12/21 09:37:28;;;;;;;3.65;1.13;;;;;;;;;;5042047;28;20026;-62
2022/12/21 09:39:54;;;;;;;7.65;1.90;;;;;;;;;;5035721;28;20021;-62
2022/12/21 09:42:20;;;;;;;5.43;1.65;;;;;;;;;;5040000;28;20079;-62
2022/12/21 09:44:59;;;;;;;4.45;0.90;;;;;;;;;;5040826;28;20025;-62
2022/12/21 09:47:32;;;;;;;2.97;1.25;;;;;;;;;;5039938;28;20388;-62
2022/12/21 09:50:03;;;;;;;5.20;1.50;;;;;;;;;;5038696;28;20057;-62
2022/12/21 09:52:35;;;;;;;10.00;2.33;;;;;;;;;;5040291;28;20160;-62
2022/12/21 09:55:04;;;;;;;3.05;1.25;;;;;;;;;;5037594;28;20543;-62
2022/12/21 09:57:33;;;;;;;9.63;2.80;;;;;;;;;;5039872;28;20032;-62
2022/12/21 09:59:59;;;;;;;11.65;2.95;;;;;;;;;;5039689;28;20041;-62
2022/12/21 10:03:00;;;;;;;8.18;2.70;;;;;;;;;;5039215;28;20033;-62
2022/12/21 10:05:43;;;;;;;9.32;2.83;;;;;;;;;;5037866;28;20465;-62
2022/12/21 10:08:27;;;;;;;7.78;3.05;;;;;;;;;;5033869;28;20441;-62
2022/12/21 10:11:06;;;;;;;7.68;2.03;;;;;;;;;;5035388;28;20440;-62
2022/12/21 10:13:38;;;;;;;7.93;3.95;;;;;;;;;;5039640;28;20482;-62
2022/12/21 10:16:04;;;;;;;7.32;2.00;;;;;;;;;;5032211;28;20513;-62
2022/12/21 10:18:33;;;;;;;9.13;2.33;;;;;;;;;;5034824;28;20108;-62
2022/12/21 10:21:17;;;;;;;6.63;1.55;;;;;;;;;;5039834;28;20520;-62
2022/12/21 10:23:47;;;;;;;10.10;1.75;;;;;;;;;;5038943;28;20037;-62
2022/12/21 10:26:19;;;;;;;9.43;1.85;;;;;;;;;;5038869;28;20071;-62
2022/12/21 10:28:46;;;;;;;10.82;2.78;;;;;;;;;;5038632;28;20494;-62
2022/12/21 10:31:19;;;;;;;15.32;3.75;;;;;;;;;;5029824;28;20062;-63
2022/12/21 10:33:47;;;;;;;15.85;2.80;;;;;;;;;;5018392;28;20740;-63
2022/12/21 10:36:17;;;;;;;13.50;2.42;;;;;;;;;;5026588;28;20025;-62
2022/12/21 10:38:44;;;;;;;14.60;2.63;;;;;;;;;;5026468;28;20042;-62
2022/12/21 10:41:14;;;;;;;13.35;2.35;;;;;;;;;;5029437;28;20113;-63
2022/12/21 10:43:41;;;;;;;13.02;2.75;;;;;;;;;;5019464;28;20037;-63
2022/12/21 10:46:07;;;;;;;20.23;3.03;;;;;;;;;;5020036;28;20030;-63
2022/12/21 10:48:34;;;;;;;14.80;3.60;;;;;;;;;;5019702;28;20401;-63
2022/12/21 10:51:23;;;;;;;22.88;3.78;;;;;;;;;;5024707;28;20033;-63
2022/12/21 10:53:59;;;;;;;11.65;2.72;;;;;;;;;;5019272;28;20064;-63
2022/12/21 10:56:26;;;;;;;20.45;3.35;;;;;;;;;;5025217;28;20046;-63
2022/12/21 10:58:53;;;;;;;24.58;3.95;;;;;;;;;;5022491;28;20057;-63
2022/12/21 11:01:22;;;;;;;22.33;3.97;;;;;;;;;;5021709;28;20390;-63
2022/12/21 11:04:05;;;;;;;24.83;4.75;;;;;;;;;;5023509;28;20113;-63
2022/12/21 11:06:31;;;;;;;;;;;;;;;;;;5029200;28;20191;-63
2022/12/21 11:08:57;;;;;;;17.67;4.13;;;;;;;;;;5024444;28;20008;-63
2022/12/21 11:11:33;;;;;;;25.30;3.58;;;;;;;;;;5029421;28;20113;-63
2022/12/21 11:14:19;;;;;;;19.13;4.60;;;;;;;;;;5023213;28;20059;-63
2022/12/21 11:16:46;;;;;;;19.77;4.15;;;;;;;;;;5026813;28;20033;-63
2022/12/21 11:19:13;;;;;;;32.53;3.95;;;;;;;;;;5020751;28;20757;-63
2022/12/21 11:21:41;;;;;;;21.13;3.92;;;;;;;;;;5026142;28;20104;-63
2022/12/21 11:24:12;;;;;;;27.83;4.03;;;;;;;;;;5021006;28;20486;-63
2022/12/21 11:26:45;;;;;;;17.60;3.72;;;;;;;;;;5029837;28;20554;-63
2022/12/21 11:29:32;;;;;;;17.85;4.38;;;;;;;;;;5031955;28;20425;-63
2022/12/21 11:32:09;;;;;;;16.20;3.47;;;;;;;;;;5025407;28;20040;-63
2022/12/21 11:34:37;;;;;;;19.80;3.78;;;;;;;;;;5029125;28;20021;-63
2022/12/21 11:37:07;;;;;;;20.08;3.53;;;;;;;;;;5027565;28;20410;-63
2022/12/21 11:39:33;;;;;;;25.65;4.18;;;;;;;;;;5026780;28;20099;-63
2022/12/21 11:41:59;;;;;;;22.88;3.47;;;;;;;;;;5021455;28;20017;-63
2022/12/21 11:44:27;;;;;;;18.25;3.50;;;;;;;;;;5029765;28;20025;-63
2022/12/21 11:47:13;;;;;;;16.08;3.45;;;;;;;;;;5030655;28;20057;-63
2022/12/21 11:49:58;;;;;;;22.55;3.22;;;;;;;;;;5026877;28;20520;-63
2022/12/21 11:52:24;;;;;;;14.60;3.55;;;;;;;;;;5019346;28;20498;-63
2022/12/21 11:54:56;;;;;;;22.00;4.07;;;;;;;;;;5022792;28;20080;-63
2022/12/21 11:57:28;;;;;;;15.10;3.63;;;;;;;;;;5027655;28;20025;-63
2022/12/21 12:00:14;;;;;;;9.68;2.53;;;;;;;;;;5031402;28;20030;-63
2022/12/21 12:02:40;;;;;;;12.10;2.63;;;;;;;;;;5027196;28;20059;-63
2022/12/21 12:05:06;;;;;;;8.75;2.50;;;;;;;;;;5023400;28;20068;-63
2022/12/21 12:07:32;;;;;;;13.38;2.47;;;;;;;;;;5019584;28;20022;-63
2022/12/21 12:10:02;;;;;;;11.20;2.40;;;;;;;;;;5024581;28;20493;-63
2022/12/21 12:12:34;;;;;;;8.77;2.15;;;;;;;;;;5021121;28;20044;-63
2022/12/21 12:15:09;;;;;;;10.07;1.98;;;;;;;;;;5030008;28;20026;-63
2022/12/21 12:17:49;;;;;;;7.60;1.88;;;;;;;;;;5022114;28;20155;-63
2022/12/21 12:20:51;;;;;;;11.15;1.90;;;;;;;;;;5023891;28;20034;-63
2022/12/21 12:23:49;;;;;;;7.88;1.73;;;;;;;;;;5021687;28;20472;-63
2022/12/21 12:26:19;;;;;;;7.50;1.67;;;;;;;;;;4958851;28;20165;-63
2022/12/21 12:28:47;;;;;;;8.82;1.38;;;;;;;;;;4957138;28;20038;-63
2022/12/21 12:31:19;;;;;;;5.50;1.23;;;;;;;;;;4953387;28;20035;-63
2022/12/21 12:33:45;;;;;;;8.57;1.08;;;;;;;;;;4953674;28;20054;-63
2022/12/21 12:36:30;;;;;;;4.82;1.15;;;;;;;;;;4952476;28;20063;-63
2022/12/21 12:38:58;;;;;;;6.88;1.35;;;;;;;;;;4954406;28;20057;-63
2022/12/21 12:41:44;;;;;;;1.83;0.90;;;;;;;;;;4957871;28;20023;-63
2022/12/21 12:44:13;;;;;;;3.03;1.35;;;;;;;;;;4959126;28;20044;-63
2022/12/21 12:46:44;;;;;;;6.47;1.23;;;;;;;;;;4955971;28;20110;-63
2022/12/21 12:49:10;;;;;;;4.25;1.10;;;;;;;;;;4955537;28;20059;-63
2022/12/21 12:51:43;;;;;;;7.72;1.50;;;;;;;;;;4960020;28;20511;-63
2022/12/21 12:54:17;;;;;;;8.68;2.08;;;;;;;;;;4955713;28;20126;-63
2022/12/21 12:56:45;;;;;;;4.25;1.30;;;;;;;;;;4955579;28;20036;-63
2022/12/21 12:59:17;;;;;;;6.25;1.83;;;;;;;;;;4952235;28;20027;-63
2022/12/21 13:01:46;;;;;;;5.45;1.90;;;;;;;;;;4985742;28;20046;-63
2022/12/21 13:04:12;;;;;;;9.55;1.65;;;;;;;;;;5022404;28;20108;-63
2022/12/21 13:06:57;;;;;;;9.25;1.60;;;;;;;;;;5031168;28;20129;-63
2022/12/21 13:09:42;;;;;;;7.07;1.60;;;;;;;;;;5031784;28;20028;-63
2022/12/21 13:12:26;;;;;;;6.43;1.60;;;;;;;;;;5030827;28;20386;-63
2022/12/21 13:15:00;;;;;;;9.60;1.77;;;;;;;;;;5022155;28;20025;-63
2022/12/21 13:17:45;;;;;;;10.65;1.85;;;;;;;;;;5023492;28;20026;-63
2022/12/21 13:20:15;;;;;;;4.30;1.48;;;;;;;;;;5026383;28;20017;-63
2022/12/21 13:22:42;;;;;;;3.97;1.50;;;;;;;;;;5022725;28;20383;-63
2022/12/21 13:25:21;;;;;;;11.13;2.28;;;;;;;;;;5015492;28;20026;-63
2022/12/21 13:27:49;;;;;;;6.53;1.77;;;;;;;;;;5019706;28;20033;-63
2022/12/21 13:30:19;;;;;;;6.78;1.80;;;;;;;;;;5019249;28;20478;-62
2022/12/21 13:32:48;;;;;;;9.98;1.83;;;;;;;;;;5021451;28;20049;-62
2022/12/21 13:35:33;;;;;;;12.10;2.40;;;;;;;;;;5018532;28;20030;-63
2022/12/21 13:38:05;;;;;;;9.75;2.10;;;;;;;;;;5017852;28;20156;-63
2022/12/21 13:40:38;;;;;;;4.03;1.30;;;;;;;;;;5018644;28;20026;-62
2022/12/21 13:43:04;;;;;;;;;;;;;;;;;;5021414;28;20440;-63
2022/12/21 13:45:33;;;;;;;7.88;1.42;;;;;;;;;;5024258;28;19913;-62
2022/12/21 13:47:59;;;;;;;5.55;1.92;;;;;;;;;;5025695;28;20040;-62
2022/12/21 13:50:42;;;;;;;8.50;1.60;;;;;;;;;;5024778;28;20512;-62
2022/12/21 13:53:14;;;;;;;12.82;1.83;;;;;;;;;;5023308;28;20037;-62
2022/12/21 13:55:40;;;;;;;7.15;1.95;;;;;;;;;;5020855;28;20044;-62
2022/12/21 13:58:25;;;;;;;11.65;1.80;;;;;;;;;;5025900;28;20026;-62
2022/12/21 14:00:59;;;;;;;8.48;1.70;;;;;;;;;;5028230;28;20359;-62
2022/12/21 14:03:30;;;;;;;7.47;1.75;;;;;;;;;;5023539;28;20033;-64
2022/12/21 14:06:06;;;;;;;8.30;2.40;;;;;;;;;;5025888;28;20500;-62
2022/12/21 14:08:41;;;;;;;10.55;2.22;;;;;;;;;;5019428;28;20473;-62
2022/12/21 14:11:16;;;;;;;12.32;2.60;;;;;;;;;;5022027;28;20037;-62
2022/12/21 14:14:01;;;;;;;14.50;2.20;;;;;;;;;;5022714;28;20025;-62
2022/12/21 14:16:34;;;;;;;15.55;2.40;;;;;;;;;;5026571;28;20109;-62
2022/12/21 14:19:02;;;;;;;14.20;3.20;;;;;;;;;;5021256;28;20044;-62
2022/12/21 14:21:29;;;;;;;11.43;3.08;;;;;;;;;;5018885;28;20025;-63
2022/12/21 14:23:57;;;;;;;16.58;3.78;;;;;;;;;;5027864;28;20465;-62
2022/12/21 14:26:43;;;;;;;15.57;4.30;;;;;;;;;;5022777;28;20124;-62
2022/12/21 14:29:28;;;;;;;16.08;4.20;;;;;;;;;;5019417;28;20073;-62
2022/12/21 14:32:02;;;;;;;11.10;2.53;;;;;;;;;;5016980;28;20059;-62
2022/12/21 14:34:39;;;;;;;7.03;2.10;;;;;;;;;;5025319;28;20053;-62
2022/12/21 14:37:11;;;;;;;5.82;1.60;;;;;;;;;;5027347;28;20061;-63
2022/12/21 14:39:46;;;;;;;6.18;2.17;;;;;;;;;;5029926;28;20021;-62
2022/12/21 14:42:35;;;;;;;8.25;1.80;;;;;;;;;;5028019;28;20056;-62
2022/12/21 14:45:13;;;;;;;9.52;2.25;;;;;;;;;;5028006;28;20731;-62
2022/12/21 14:47:48;;;;;;;7.70;1.90;;;;;;;;;;5020361;28;20473;-62
2022/12/21 14:50:24;;;;;;;8.50;2.58;;;;;;;;;;5028005;28;20536;-62
2022/12/21 14:53:02;;;;;;;7.47;2.20;;;;;;;;;;5029538;28;20044;-62
2022/12/21 14:55:30;;;;;;;10.40;2.80;;;;;;;;;;5030662;28;20124;-62
2022/12/21 14:57:56;;;;;;;15.35;4.15;;;;;;;;;;5025839;28;20101;-62
2022/12/21 15:00:24;;;;;;;12.88;3.55;;;;;;;;;;5025052;28;20021;-62
2022/12/21 15:02:50;;;;;;;9.35;2.45;;;;;;;;;;5026636;28;20022;-62
2022/12/21 15:05:19;;;;;;;13.88;3.90;;;;;;;;;;5029410;28;20120;-62
2022/12/21 15:07:50;;;;;;;11.02;3.63;;;;;;;;;;5023636;28;20026;-63